sensor_id;sensor_type;location;lat;lon;timestamp;pressure;altitude;pressure_sealevel;temperature;humidity
74868;BME280;63419;42.262;12.210;2023-10-19T00:01:17;97096.22;;;19.77;100.00
74868;BME280;63419;42.262;12.210;2023-10-19T00:03:44;97027.34;;;20.87;100.00
74868;BME280;63419;42.262;12.210;2023-10-19T00:06:10;96900.94;;;20.23;100.00
74868;BME280;63419;42.262;12.210;2023-10-19T00:08:37;96907.50;;;20.27;100.00
74868;BME280;63419;42.262;12.210;2023-10-19T00:11:08;96953.47;;;19.42;100.00
74868;BME280;63419;42.262;12.210;2023-10-19T00:13:48;96949.78;;;19.68;100.00
74868;BME280;63419;42.262;12.210;2023-10-19T00:16:19;96935.34;;;19.88;100.00
74868;BME280;63419;42.262;12.210;2023-10-19T00:18:49;96954.84;;;19.86;100.00
74868;BME280;63419;42.262;12.210;2023-10-19T00:21:18;96944.50;;;19.92;100.00
74868;BME280;63419;42.262;12.210;2023-10-19T00:23:45;96949.28;;;19.72;100.00
74868;BME280;63419;42.262;12.210;2023-10-19T00:26:13;96931.31;;;19.77;100.00
74868;BME280;63419;42.262;12.210;2023-10-19T00:28:48;96921.31;;;19.81;100.00
74868;BME280;63419;42.262;12.210;2023-10-19T00:31:26;96920.50;;;19.72;100.00
74868;BME280;63419;42.262;12.210;2023-10-19T00:33:59;96919.84;;;20.41;100.00
74868;BME280;63419;42.262;12.210;2023-10-19T00:36:26;96919.22;;;20.08;100.00
74868;BME280;63419;42.262;12.210;2023-10-19T00:38:52;96926.34;;;19.91;100.00
74868;BME280;63419;42.262;12.210;2023-10-19T00:41:25;96916.69;;;20.46;100.00
74868;BME280;63419;42.262;12.210;2023-10-19T00:44:00;96905.34;;;20.30;100.00
74868;BME280;63419;42.262;12.210;2023-10-19T00:46:33;96888.22;;;20.20;100.00
74868;BME280;63419;42.262;12.210;2023-10-19T00:49:05;96887.50;;;20.26;100.00
74868;BME280;63419;42.262;12.210;2023-10-19T00:51:41;96881.34;;;20.65;100.00
74868;BME280;63419;42.262;12.210;2023-10-19T00:54:34;96885.88;;;20.25;100.00
74868;BME280;63419;42.262;12.210;2023-10-19T00:57:07;96872.19;;;20.61;100.00
74868;BME280;63419;42.262;12.210;2023-10-19T00:59:41;96864.72;;;20.49;100.00
74868;BME280;63419;42.262;12.210;2023-10-19T01:02:21;96866.59;;;20.17;100.00
74868;BME280;63419;42.262;12.210;2023-10-19T01:04:53;96865.16;;;19.92;100.00
74868;BME280;63419;42.262;12.210;2023-10-19T01:07:23;96857.34;;;20.07;100.00
74868;BME280;63419;42.262;12.210;2023-10-19T01:09:49;96855.19;;;20.10;100.00
74868;BME280;63419;42.262;12.210;2023-10-19T01:12:20;96835.47;;;19.68;100.00
74868;BME280;63419;42.262;12.210;2023-10-19T01:17:36;96842.97;;;19.80;100.00
74868;BME280;63419;42.262;12.210;2023-10-19T01:20:16;96836.63;;;19.74;100.00
74868;BME280;63419;42.262;12.210;2023-10-19T01:23:05;96841.78;;;19.51;100.00
74868;BME280;63419;42.262;12.210;2023-10-19T01:25:32;96831.16;;;19.84;100.00
74868;BME280;63419;42.262;12.210;2023-10-19T01:28:09;96822.03;;;19.71;100.00
74868;BME280;63419;42.262;12.210;2023-10-19T01:30:37;96829.28;;;19.30;100.00
74868;BME280;63419;42.262;12.210;2023-10-19T01:33:06;96810.56;;;19.81;100.00
74868;BME280;63419;42.262;12.210;2023-10-19T01:35:39;96801.31;;;20.54;100.00
74868;BME280;63419;42.262;12.210;2023-10-19T01:38:23;96800.53;;;20.53;100.00
74868;BME280;63419;42.262;12.210;2023-10-19T01:40:50;96805.38;;;20.57;100.00
74868;BME280;63419;42.262;12.210;2023-10-19T01:43:17;96795.22;;;20.62;100.00
74868;BME280;63419;42.262;12.210;2023-10-19T01:45:52;96785.38;;;20.41;100.00
74868;BME280;63419;42.262;12.210;2023-10-19T01:48:21;96806.94;;;19.82;100.00
74868;BME280;63419;42.262;12.210;2023-10-19T01:50:53;96806.38;;;20.17;100.00
74868;BME280;63419;42.262;12.210;2023-10-19T01:53:19;96803.03;;;20.47;100.00
74868;BME280;63419;42.262;12.210;2023-10-19T01:55:50;96799.66;;;20.61;100.00
74868;BME280;63419;42.262;12.210;2023-10-19T01:58:26;96793.91;;;20.43;100.00
74868;BME280;63419;42.262;12.210;2023-10-19T02:00:55;96776.88;;;20.62;100.00
74868;BME280;63419;42.262;12.210;2023-10-19T02:03:26;96779.78;;;20.29;100.00
74868;BME280;63419;42.262;12.210;2023-10-19T02:06:01;96773.81;;;20.73;100.00
74868;BME280;63419;42.262;12.210;2023-10-19T02:09:13;96769.22;;;21.26;100.00
74868;BME280;63419;42.262;12.210;2023-10-19T02:11:54;96777.97;;;20.82;100.00
74868;BME280;63419;42.262;12.210;2023-10-19T02:14:26;96780.03;;;20.72;100.00
74868;BME280;63419;42.262;12.210;2023-10-19T02:16:56;96771.94;;;20.59;100.00
74868;BME280;63419;42.262;12.210;2023-10-19T02:19:25;96775.75;;;20.56;100.00
74868;BME280;63419;42.262;12.210;2023-10-19T02:21:54;96765.75;;;20.22;100.00
74868;BME280;63419;42.262;12.210;2023-10-19T02:24:21;96755.78;;;20.02;100.00
74868;BME280;63419;42.262;12.210;2023-10-19T02:26:51;96772.44;;;20.39;100.00
74868;BME280;63419;42.262;12.210;2023-10-19T02:29:17;96770.84;;;20.53;100.00
74868;BME280;63419;42.262;12.210;2023-10-19T02:31:44;96777.66;;;20.09;100.00
74868;BME280;63419;42.262;12.210;2023-10-19T02:34:12;96758.88;;;20.21;100.00
74868;BME280;63419;42.262;12.210;2023-10-19T02:36:43;96744.47;;;20.54;100.00
74868;BME280;63419;42.262;12.210;2023-10-19T02:39:12;96737.56;;;20.77;100.00
74868;BME280;63419;42.262;12.210;2023-10-19T02:41:45;96732.00;;;20.57;100.00
74868;BME280;63419;42.262;12.210;2023-10-19T02:44:19;96731.81;;;19.90;100.00
74868;BME280;63419;42.262;12.210;2023-10-19T02:46:52;96731.19;;;19.57;100.00
74868;BME280;63419;42.262;12.210;2023-10-19T02:49:24;96711.53;;;20.07;100.00
74868;BME280;63419;42.262;12.210;2023-10-19T02:51:53;96705.34;;;20.38;100.00
74868;BME280;63419;42.262;12.210;2023-10-19T02:54:24;96706.16;;;20.24;100.00
74868;BME280;63419;42.262;12.210;2023-10-19T02:56:55;96700.94;;;20.53;100.00
74868;BME280;63419;42.262;12.210;2023-10-19T02:59:27;96692.81;;;19.95;100.00
74868;BME280;63419;42.262;12.210;2023-10-19T03:02:00;96687.19;;;20.51;100.00
74868;BME280;63419;42.262;12.210;2023-10-19T03:04:27;96676.19;;;20.71;100.00
74868;BME280;63419;42.262;12.210;2023-10-19T03:06:56;96683.13;;;20.49;100.00
74868;BME280;63419;42.262;12.210;2023-10-19T03:09:23;96673.25;;;20.96;100.00
74868;BME280;63419;42.262;12.210;2023-10-19T03:11:55;96657.50;;;21.10;100.00
74868;BME280;63419;42.262;12.210;2023-10-19T03:14:26;96662.50;;;20.90;100.00
74868;BME280;63419;42.262;12.210;2023-10-19T03:16:53;96661.25;;;20.57;100.00
74868;BME280;63419;42.262;12.210;2023-10-19T03:19:22;96661.78;;;20.07;100.00
74868;BME280;63419;42.262;12.210;2023-10-19T03:21:50;96646.31;;;21.02;100.00
74868;BME280;63419;42.262;12.210;2023-10-19T03:24:18;96654.66;;;20.46;100.00
74868;BME280;63419;42.262;12.210;2023-10-19T03:27:15;96663.06;;;20.56;100.00
74868;BME280;63419;42.262;12.210;2023-10-19T03:29:48;96679.84;;;20.17;100.00
74868;BME280;63419;42.262;12.210;2023-10-19T03:32:19;96681.03;;;20.14;100.00
74868;BME280;63419;42.262;12.210;2023-10-19T03:34:57;96674.00;;;20.60;100.00
74868;BME280;63419;42.262;12.210;2023-10-19T03:37:26;96665.38;;;21.10;100.00
74868;BME280;63419;42.262;12.210;2023-10-19T03:39:55;96678.75;;;20.11;100.00
74868;BME280;63419;42.262;12.210;2023-10-19T03:42:25;96692.69;;;19.89;100.00
74868;BME280;63419;42.262;12.210;2023-10-19T03:44:58;96681.25;;;20.43;100.00
74868;BME280;63419;42.262;12.210;2023-10-19T03:47:25;96677.50;;;20.37;100.00
74868;BME280;63419;42.262;12.210;2023-10-19T03:49:57;96670.38;;;20.46;100.00
74868;BME280;63419;42.262;12.210;2023-10-19T03:52:25;96674.44;;;20.33;100.00
74868;BME280;63419;42.262;12.210;2023-10-19T03:54:55;96671.47;;;20.22;100.00
74868;BME280;63419;42.262;12.210;2023-10-19T03:57:23;96683.88;;;19.67;100.00
74868;BME280;63419;42.262;12.210;2023-10-19T03:59:51;96664.50;;;20.44;100.00
74868;BME280;63419;42.262;12.210;2023-10-19T04:02:21;96647.63;;;20.16;100.00
74868;BME280;63419;42.262;12.210;2023-10-19T04:04:49;96633.03;;;20.59;100.00
74868;BME280;63419;42.262;12.210;2023-10-19T04:07:18;96641.66;;;20.08;100.00
74868;BME280;63419;42.262;12.210;2023-10-19T04:09:55;96651.84;;;20.03;100.00
74868;BME280;63419;42.262;12.210;2023-10-19T04:12:30;96642.16;;;20.03;100.00
74868;BME280;63419;42.262;12.210;2023-10-19T04:14:57;96652.47;;;19.90;100.00
74868;BME280;63419;42.262;12.210;2023-10-19T04:17:23;96654.66;;;19.55;100.00
74868;BME280;63419;42.262;12.210;2023-10-19T04:19:52;96653.94;;;20.07;100.00
74868;BME280;63419;42.262;12.210;2023-10-19T04:22:18;96668.84;;;19.37;100.00
74868;BME280;63419;42.262;12.210;2023-10-19T04:24:51;96668.78;;;19.92;100.00
74868;BME280;63419;42.262;12.210;2023-10-19T04:27:18;96671.59;;;19.67;100.00
74868;BME280;63419;42.262;12.210;2023-10-19T04:29:48;96650.66;;;20.05;100.00
74868;BME280;63419;42.262;12.210;2023-10-19T04:32:16;96662.97;;;20.20;100.00
74868;BME280;63419;42.262;12.210;2023-10-19T04:34:52;96659.44;;;19.51;100.00
74868;BME280;63419;42.262;12.210;2023-10-19T04:37:18;96628.47;;;20.61;100.00
74868;BME280;63419;42.262;12.210;2023-10-19T04:39:47;96621.75;;;20.58;100.00
74868;BME280;63419;42.262;12.210;2023-10-19T04:42:15;96621.75;;;19.84;100.00
74868;BME280;63419;42.262;12.210;2023-10-19T04:44:41;96630.94;;;19.80;100.00
74868;BME280;63419;42.262;12.210;2023-10-19T04:47:07;96634.09;;;19.75;100.00
74868;BME280;63419;42.262;12.210;2023-10-19T04:49:33;96636.78;;;19.44;100.00
74868;BME280;63419;42.262;12.210;2023-10-19T04:51:58;96633.59;;;19.71;100.00
74868;BME280;63419;42.262;12.210;2023-10-19T04:54:24;96611.56;;;20.63;100.00
74868;BME280;63419;42.262;12.210;2023-10-19T04:56:50;96617.09;;;19.71;100.00
74868;BME280;63419;42.262;12.210;2023-10-19T04:59:18;96611.47;;;20.12;100.00
74868;BME280;63419;42.262;12.210;2023-10-19T05:01:44;96614.19;;;20.19;100.00
74868;BME280;63419;42.262;12.210;2023-10-19T05:04:10;96610.16;;;20.16;100.00
74868;BME280;63419;42.262;12.210;2023-10-19T05:06:38;96597.22;;;20.14;100.00
74868;BME280;63419;42.262;12.210;2023-10-19T05:09:04;96593.97;;;19.83;100.00
74868;BME280;63419;42.262;12.210;2023-10-19T05:11:31;96599.22;;;20.12;100.00
74868;BME280;63419;42.262;12.210;2023-10-19T05:13:57;96603.28;;;20.15;100.00
74868;BME280;63419;42.262;12.210;2023-10-19T05:16:23;96599.91;;;19.53;100.00
74868;BME280;63419;42.262;12.210;2023-10-19T05:18:49;96591.44;;;20.19;100.00
74868;BME280;63419;42.262;12.210;2023-10-19T05:21:14;96603.63;;;19.82;100.00
74868;BME280;63419;42.262;12.210;2023-10-19T05:23:41;96602.78;;;19.82;100.00
74868;BME280;63419;42.262;12.210;2023-10-19T05:26:06;96611.75;;;19.64;100.00
74868;BME280;63419;42.262;12.210;2023-10-19T05:28:32;96624.22;;;19.39;100.00
74868;BME280;63419;42.262;12.210;2023-10-19T05:30:59;96609.78;;;20.04;100.00
74868;BME280;63419;42.262;12.210;2023-10-19T05:33:27;96620.59;;;20.01;100.00
74868;BME280;63419;42.262;12.210;2023-10-19T05:35:53;96611.59;;;20.04;100.00
74868;BME280;63419;42.262;12.210;2023-10-19T05:38:19;96601.28;;;20.02;100.00
74868;BME280;63419;42.262;12.210;2023-10-19T05:40:46;96625.03;;;19.86;100.00
74868;BME280;63419;42.262;12.210;2023-10-19T05:43:13;96608.16;;;20.33;100.00
74868;BME280;63419;42.262;12.210;2023-10-19T05:45:39;96633.41;;;19.58;100.00
74868;BME280;63419;42.262;12.210;2023-10-19T05:48:06;96633.59;;;19.71;100.00
74868;BME280;63419;42.262;12.210;2023-10-19T05:50:35;96632.03;;;19.85;100.00
74868;BME280;63419;42.262;12.210;2023-10-19T05:53:05;96637.03;;;20.10;100.00
74868;BME280;63419;42.262;12.210;2023-10-19T05:55:31;96622.44;;;20.97;100.00
74868;BME280;63419;42.262;12.210;2023-10-19T05:57:59;96627.13;;;20.65;100.00
74868;BME280;63419;42.262;12.210;2023-10-19T06:00:25;96641.13;;;20.12;100.00
74868;BME280;63419;42.262;12.210;2023-10-19T06:02:54;96639.84;;;20.38;100.00
74868;BME280;63419;42.262;12.210;2023-10-19T06:05:20;96653.31;;;20.50;100.00
74868;BME280;63419;42.262;12.210;2023-10-19T06:07:48;96650.66;;;20.05;100.00
74868;BME280;63419;42.262;12.210;2023-10-19T06:10:18;96653.13;;;20.51;100.00
74868;BME280;63419;42.262;12.210;2023-10-19T06:12:48;96650.22;;;20.31;100.00
74868;BME280;63419;42.262;12.210;2023-10-19T06:15:18;96660.44;;;20.11;100.00
74868;BME280;63419;42.262;12.210;2023-10-19T06:17:46;96646.53;;;20.26;100.00
74868;BME280;63419;42.262;12.210;2023-10-19T06:20:14;96633.06;;;20.44;100.00
74868;BME280;63419;42.262;12.210;2023-10-19T06:22:51;96645.44;;;20.35;100.00
74868;BME280;63419;42.262;12.210;2023-10-19T06:25:23;96645.00;;;20.76;100.00
74868;BME280;63419;42.262;12.210;2023-10-19T06:27:51;96642.53;;;20.60;100.00
74868;BME280;63419;42.262;12.210;2023-10-19T06:30:19;96653.47;;;20.78;100.00
74868;BME280;63419;42.262;12.210;2023-10-19T06:32:50;96643.44;;;20.97;100.00
74868;BME280;63419;42.262;12.210;2023-10-19T06:35:20;96646.50;;;20.85;100.00
74868;BME280;63419;42.262;12.210;2023-10-19T06:37:47;96648.50;;;20.83;100.00
74868;BME280;63419;42.262;12.210;2023-10-19T06:40:15;96653.16;;;21.03;100.00
74868;BME280;63419;42.262;12.210;2023-10-19T06:42:46;96640.03;;;21.03;100.00
74868;BME280;63419;42.262;12.210;2023-10-19T06:45:13;96642.41;;;20.98;100.00
74868;BME280;63419;42.262;12.210;2023-10-19T06:47:47;96634.97;;;21.16;100.00
74868;BME280;63419;42.262;12.210;2023-10-19T06:50:17;96646.69;;;21.20;100.00
74868;BME280;63419;42.262;12.210;2023-10-19T06:52:45;96648.19;;;21.29;100.00
74868;BME280;63419;42.262;12.210;2023-10-19T06:55:16;96649.75;;;21.24;100.00
74868;BME280;63419;42.262;12.210;2023-10-19T06:57:45;96652.69;;;21.14;100.00
74868;BME280;63419;42.262;12.210;2023-10-19T07:00:11;96643.72;;;21.45;100.00
74868;BME280;63419;42.262;12.210;2023-10-19T07:02:42;96648.34;;;21.64;100.00
74868;BME280;63419;42.262;12.210;2023-10-19T07:05:13;96654.84;;;21.47;100.00
74868;BME280;63419;42.262;12.210;2023-10-19T07:07:44;96653.72;;;21.56;100.00
74868;BME280;63419;42.262;12.210;2023-10-19T07:10:12;96663.66;;;21.03;100.00
74868;BME280;63419;42.262;12.210;2023-10-19T07:12:42;96655.50;;;21.34;100.00
74868;BME280;63419;42.262;12.210;2023-10-19T07:15:09;96648.91;;;21.60;100.00
74868;BME280;63419;42.262;12.210;2023-10-19T07:17:49;96651.88;;;21.35;100.00
74868;BME280;63419;42.262;12.210;2023-10-19T07:20:19;96651.94;;;21.42;100.00
74868;BME280;63419;42.262;12.210;2023-10-19T07:22:55;96631.72;;;22.84;100.00
74868;BME280;63419;42.262;12.210;2023-10-19T07:25:24;96663.56;;;21.11;100.00
74868;BME280;63419;42.262;12.210;2023-10-19T07:27:52;96650.09;;;22.07;100.00
74868;BME280;63419;42.262;12.210;2023-10-19T07:30:22;96655.13;;;22.37;100.00
74868;BME280;63419;42.262;12.210;2023-10-19T07:32:52;96654.56;;;21.85;100.00
74868;BME280;63419;42.262;12.210;2023-10-19T07:35:27;96658.47;;;21.46;100.00
74868;BME280;63419;42.262;12.210;2023-10-19T07:37:54;96667.66;;;21.57;100.00
74868;BME280;63419;42.262;12.210;2023-10-19T07:40:22;96688.38;;;20.64;100.00
74868;BME280;63419;42.262;12.210;2023-10-19T07:42:49;96673.72;;;21.57;100.00
74868;BME280;63419;42.262;12.210;2023-10-19T07:45:18;96670.72;;;21.82;100.00
74868;BME280;63419;42.262;12.210;2023-10-19T07:47:44;96658.59;;;22.37;100.00
74868;BME280;63419;42.262;12.210;2023-10-19T07:50:12;96638.97;;;23.43;100.00
74868;BME280;63419;42.262;12.210;2023-10-19T07:52:46;96630.47;;;23.48;100.00
74868;BME280;63419;42.262;12.210;2023-10-19T07:55:18;96655.09;;;22.02;100.00
74868;BME280;63419;42.262;12.210;2023-10-19T07:57:45;96667.22;;;21.53;100.00
74868;BME280;63419;42.262;12.210;2023-10-19T08:00:12;96665.22;;;22.33;100.00
74868;BME280;63419;42.262;12.210;2023-10-19T08:02:42;96644.16;;;23.16;100.00
74868;BME280;63419;42.262;12.210;2023-10-19T08:05:11;96653.94;;;22.81;100.00
74868;BME280;63419;42.262;12.210;2023-10-19T08:07:38;96667.03;;;22.04;100.00
74868;BME280;63419;42.262;12.210;2023-10-19T08:10:18;96659.97;;;22.05;100.00
74868;BME280;63419;42.262;12.210;2023-10-19T08:12:47;96652.59;;;22.98;100.00
74868;BME280;63419;42.262;12.210;2023-10-19T08:15:15;96636.13;;;23.65;100.00
74868;BME280;63419;42.262;12.210;2023-10-19T08:17:48;96631.22;;;23.15;100.00
74868;BME280;63419;42.262;12.210;2023-10-19T08:20:16;96648.41;;;22.62;100.00
74868;BME280;63419;42.262;12.210;2023-10-19T08:22:45;96647.31;;;22.92;100.00
74868;BME280;63419;42.262;12.210;2023-10-19T08:25:13;96624.34;;;23.14;100.00
74868;BME280;63419;42.262;12.210;2023-10-19T08:27:45;96636.75;;;22.78;100.00
74868;BME280;63419;42.262;12.210;2023-10-19T08:30:18;96630.44;;;23.54;100.00
74868;BME280;63419;42.262;12.210;2023-10-19T08:32:44;96622.78;;;23.73;100.00
74868;BME280;63419;42.262;12.210;2023-10-19T08:35:19;96622.78;;;23.73;100.00
74868;BME280;63419;42.262;12.210;2023-10-19T08:37:52;96622.97;;;23.51;100.00
74868;BME280;63419;42.262;12.210;2023-10-19T08:40:20;96613.84;;;24.07;100.00
74868;BME280;63419;42.262;12.210;2023-10-19T08:42:47;96647.53;;;22.49;100.00
74868;BME280;63419;42.262;12.210;2023-10-19T08:45:15;96646.72;;;22.20;100.00
74868;BME280;63419;42.262;12.210;2023-10-19T08:47:59;96643.47;;;23.01;100.00
74868;BME280;63419;42.262;12.210;2023-10-19T08:50:29;96649.38;;;22.55;100.00
74868;BME280;63419;42.262;12.210;2023-10-19T08:53:02;96645.66;;;22.84;100.00
74868;BME280;63419;42.262;12.210;2023-10-19T08:55:32;96615.09;;;23.91;100.00
74868;BME280;63419;42.262;12.210;2023-10-19T08:58:00;96629.81;;;23.12;100.00
74868;BME280;63419;42.262;12.210;2023-10-19T09:00:27;96634.88;;;22.72;100.00
74868;BME280;63419;42.262;12.210;2023-10-19T09:02:54;96622.97;;;23.65;100.00
74868;BME280;63419;42.262;12.210;2023-10-19T09:05:22;96614.44;;;23.29;100.00
74868;BME280;63419;42.262;12.210;2023-10-19T09:07:49;96615.72;;;23.80;100.00
74868;BME280;63419;42.262;12.210;2023-10-19T09:10:26;96613.06;;;23.80;100.00
74868;BME280;63419;42.262;12.210;2023-10-19T09:13:05;96599.28;;;23.91;100.00
74868;BME280;63419;42.262;12.210;2023-10-19T09:15:38;96615.25;;;23.23;100.00
74868;BME280;63419;42.262;12.210;2023-10-19T09:18:21;96609.81;;;23.85;100.00
74868;BME280;63419;42.262;12.210;2023-10-19T09:20:50;96596.03;;;23.89;100.00
74868;BME280;63419;42.262;12.210;2023-10-19T09:23:26;96599.28;;;24.05;100.00
74868;BME280;63419;42.262;12.210;2023-10-19T09:25:57;96591.47;;;24.37;100.00
74868;BME280;63419;42.262;12.210;2023-10-19T09:28:24;96612.41;;;23.31;100.00
74868;BME280;63419;42.262;12.210;2023-10-19T09:30:51;96587.88;;;24.24;100.00
74868;BME280;63419;42.262;12.210;2023-10-19T09:33:18;96590.97;;;24.01;100.00
74868;BME280;63419;42.262;12.210;2023-10-19T09:35:48;96604.31;;;23.60;100.00
74868;BME280;63419;42.262;12.210;2023-10-19T09:38:15;96591.56;;;24.03;100.00
74868;BME280;63419;42.262;12.210;2023-10-19T09:40:42;96589.50;;;23.12;100.00
74868;BME280;63419;42.262;12.210;2023-10-19T09:43:21;96604.13;;;23.61;100.00
74868;BME280;63419;42.262;12.210;2023-10-19T09:45:51;96589.16;;;23.75;100.00
74868;BME280;63419;42.262;12.210;2023-10-19T09:48:21;96580.59;;;24.20;100.00
74868;BME280;63419;42.262;12.210;2023-10-19T09:50:54;96586.84;;;24.25;100.00
74868;BME280;63419;42.262;12.210;2023-10-19T09:53:25;96561.00;;;24.61;100.00
74868;BME280;63419;42.262;12.210;2023-10-19T09:55:57;96544.72;;;25.34;100.00
74868;BME280;63419;42.262;12.210;2023-10-19T09:58:28;96544.50;;;25.04;100.00
74868;BME280;63419;42.262;12.210;2023-10-19T10:00:57;96525.06;;;26.17;100.00
74868;BME280;63419;42.262;12.210;2023-10-19T10:03:49;96539.41;;;25.41;100.00
74868;BME280;63419;42.262;12.210;2023-10-19T10:09:21;96540.69;;;25.00;100.00
74868;BME280;63419;42.262;12.210;2023-10-19T10:11:54;96548.72;;;24.80;100.00
74868;BME280;63419;42.262;12.210;2023-10-19T10:14:23;96515.22;;;25.44;100.00
74868;BME280;63419;42.262;12.210;2023-10-19T10:17:01;96554.69;;;23.97;100.00
74868;BME280;63419;42.262;12.210;2023-10-19T10:19:27;96520.69;;;25.42;100.00
74868;BME280;63419;42.262;12.210;2023-10-19T10:22:10;96512.63;;;25.37;100.00
74868;BME280;63419;42.262;12.210;2023-10-19T10:24:44;96529.25;;;24.74;100.00
74868;BME280;63419;42.262;12.210;2023-10-19T10:27:10;96510.72;;;25.19;100.00
74868;BME280;63419;42.262;12.210;2023-10-19T10:29:58;96505.06;;;25.16;100.00
74868;BME280;63419;42.262;12.210;2023-10-19T10:32:56;96523.66;;;24.12;100.00
74868;BME280;63419;42.262;12.210;2023-10-19T10:38:07;96490.47;;;26.00;100.00
74868;BME280;63419;42.262;12.210;2023-10-19T10:40:49;96481.28;;;26.52;100.00
74868;BME280;63419;42.262;12.210;2023-10-19T10:43:16;96500.44;;;25.36;100.00
74868;BME280;63419;42.262;12.210;2023-10-19T10:45:42;96504.69;;;24.80;100.00
74868;BME280;63419;42.262;12.210;2023-10-19T10:48:16;96488.28;;;24.78;100.00
74868;BME280;63419;42.262;12.210;2023-10-19T10:50:43;96486.03;;;25.57;100.00
74868;BME280;63419;42.262;12.210;2023-10-19T10:53:12;96488.28;;;24.78;100.00
74868;BME280;63419;42.262;12.210;2023-10-19T10:55:38;96491.91;;;24.77;100.00
74868;BME280;63419;42.262;12.210;2023-10-19T10:58:05;96484.91;;;24.96;100.00
74868;BME280;63419;42.262;12.210;2023-10-19T11:00:31;96471.31;;;25.18;100.00
74868;BME280;63419;42.262;12.210;2023-10-19T11:03:06;96471.78;;;24.51;100.00
74868;BME280;63419;42.262;12.210;2023-10-19T11:05:38;96457.97;;;25.13;100.00
74868;BME280;63419;42.262;12.210;2023-10-19T11:08:16;96461.91;;;25.03;100.00
74868;BME280;63419;42.262;12.210;2023-10-19T11:10:47;96465.56;;;25.02;100.00
74868;BME280;63419;42.262;12.210;2023-10-19T11:13:22;96419.78;;;27.10;100.00
74868;BME280;63419;42.262;12.210;2023-10-19T11:15:55;96406.44;;;27.29;100.00
74868;BME280;63419;42.262;12.210;2023-10-19T11:18:41;96422.72;;;26.36;100.00
74868;BME280;63419;42.262;12.210;2023-10-19T11:21:13;96398.13;;;26.78;100.00
74868;BME280;63419;42.262;12.210;2023-10-19T11:23:48;96365.81;;;28.62;100.00
74868;BME280;63419;42.262;12.210;2023-10-19T11:26:20;96338.97;;;29.14;100.00
74868;BME280;63419;42.262;12.210;2023-10-19T11:28:46;96325.81;;;29.86;100.00
74868;BME280;63419;42.262;12.210;2023-10-19T11:31:22;96336.97;;;28.82;100.00
74868;BME280;63419;42.262;12.210;2023-10-19T11:33:50;96356.16;;;28.10;100.00
74868;BME280;63419;42.262;12.210;2023-10-19T11:36:18;96378.72;;;27.31;100.00
74868;BME280;63419;42.262;12.210;2023-10-19T11:38:47;96356.50;;;28.93;100.00
74868;BME280;63419;42.262;12.210;2023-10-19T11:41:14;96347.75;;;29.32;100.00
74868;BME280;63419;42.262;12.210;2023-10-19T11:43:44;96377.19;;;26.76;100.00
74868;BME280;63419;42.262;12.210;2023-10-19T11:46:10;96340.69;;;29.03;100.00
74868;BME280;63419;42.262;12.210;2023-10-19T11:48:41;96369.56;;;28.03;100.00
74868;BME280;63419;42.262;12.210;2023-10-19T11:51:08;96345.41;;;29.57;100.00
74868;BME280;63419;42.262;12.210;2023-10-19T11:53:38;96362.38;;;27.75;100.00
74868;BME280;63419;42.262;12.210;2023-10-19T11:56:07;96399.75;;;26.07;100.00
74868;BME280;63419;42.262;12.210;2023-10-19T11:58:43;96412.88;;;25.39;100.00
74868;BME280;63419;42.262;12.210;2023-10-19T12:01:12;96393.66;;;26.90;100.00
74868;BME280;63419;42.262;12.210;2023-10-19T12:03:39;96384.81;;;27.96;100.00
74868;BME280;63419;42.262;12.210;2023-10-19T12:06:09;96416.63;;;26.36;100.00
74868;BME280;63419;42.262;12.210;2023-10-19T12:08:37;96428.91;;;24.69;100.00
74868;BME280;63419;42.262;12.210;2023-10-19T12:11:04;96420.97;;;26.00;100.00
74868;BME280;63419;42.262;12.210;2023-10-19T12:13:31;96410.81;;;26.57;100.00
74868;BME280;63419;42.262;12.210;2023-10-19T12:15:57;96392.19;;;27.42;100.00
74868;BME280;63419;42.262;12.210;2023-10-19T12:18:24;96396.91;;;27.80;100.00
74868;BME280;63419;42.262;12.210;2023-10-19T12:20:54;96446.28;;;25.02;100.00
74868;BME280;63419;42.262;12.210;2023-10-19T12:23:25;96435.97;;;26.18;100.00
74868;BME280;63419;42.262;12.210;2023-10-19T12:25:51;96419.22;;;25.94;100.00
74868;BME280;63419;42.262;12.210;2023-10-19T12:28:19;96410.44;;;26.84;100.00
74868;BME280;63419;42.262;12.210;2023-10-19T12:30:45;96421.47;;;26.39;100.00
74868;BME280;63419;42.262;12.210;2023-10-19T12:33:11;96383.34;;;28.80;100.00
74868;BME280;63419;42.262;12.210;2023-10-19T12:35:43;96385.19;;;27.76;100.00
74868;BME280;63419;42.262;12.210;2023-10-19T12:38:22;96413.31;;;26.71;100.00
74868;BME280;63419;42.262;12.210;2023-10-19T12:40:50;96434.38;;;24.67;100.00
74868;BME280;63419;42.262;12.210;2023-10-19T12:43:18;96423.88;;;25.73;100.00
74868;BME280;63419;42.262;12.210;2023-10-19T12:45:51;96364.84;;;28.68;100.00
74868;BME280;63419;42.262;12.210;2023-10-19T12:48:20;96373.19;;;28.14;100.00
74868;BME280;63419;42.262;12.210;2023-10-19T12:50:46;96393.66;;;27.38;100.00
74868;BME280;63419;42.262;12.210;2023-10-19T12:53:13;96376.91;;;27.72;100.00
74868;BME280;63419;42.262;12.210;2023-10-19T12:55:40;96396.88;;;26.92;100.00
74868;BME280;63419;42.262;12.210;2023-10-19T12:58:08;96381.13;;;27.97;100.00
74868;BME280;63419;42.262;12.210;2023-10-19T13:00:38;96359.91;;;29.28;100.00
74868;BME280;63419;42.262;12.210;2023-10-19T13:03:10;96350.31;;;30.42;100.00
74868;BME280;63419;42.262;12.210;2023-10-19T13:05:40;96380.28;;;27.97;100.00